SBNT/NAT METAR and TAF weather

Enter ICAO airport designator
Station Type Date Time Source
SBNT METAR 2019/12/09 00:00 UTC NOAA

SBNT 090000Z 09012KT 9999 SCT019 27/23 Q1013


Station Type Date Time Source
SBNT Decoded METAR 2019/12/09 00:00 UTC NOAA

Natal Aeroporto, Brazil (SBNT) 05-55S 035-15W 49M
Dec 08, 2019 - 07:00 PM EST / 2019.12.09 0000 UTC
Wind: from the E (090 degrees) at 14 MPH (12 KT):0
Visibility: greater than 7 mile(s):0
Sky conditions: partly cloudy
Temperature: 80 F (27 C)
Dew Point: 73 F (23 C)
Relative Humidity: 78%
Pressure (altimeter): 29.91 in. Hg (1013 hPa)
ob: SBNT 090000Z 09012KT 9999 SCT019 27/23 Q1013
cycle: 0

Station Type Date Time Source
SBNT TAF 2019/12/09 00:33 UTC NOAA

TAF TAF SBNT 082200Z 0900/0912 06005KT 9999 FEW017 TN25/0906Z TX29/0912Z
BECMG 0903/0905 09005KT
BECMG 0908/0910 06010KT BKN025
RMK PEH

Example: see airport list